Time;durP1;ratioP1;P1;durP2;ratioP2;P2;SDS_P1;SDS_P2;PMS_P1;PMS_P2;Temp;Humidity;BMP_temperature;BMP_pressure;BME280_temperature;BME280_humidity;BME280_pressure;Samples;Min_cycle;Max_cycle;Signal;HPM_P1;HPM_P2
2021/01/27 00:02:19;;;;;;;5.57;2.28;;;24.60;63.40;;;;;;6239247;23;20420;-72
2021/01/27 00:04:46;;;;;;;7.35;1.88;;;24.60;63.50;;;;;;6238401;23;20004;-72
2021/01/27 00:07:12;;;;;;;6.75;1.70;;;24.50;63.50;;;;;;6239008;23;20003;-73
2021/01/27 00:09:39;;;;;;;6.78;2.28;;;24.50;63.60;;;;;;6239754;23;20000;-73
2021/01/27 00:12:06;;;;;;;5.80;1.38;;;24.50;63.70;;;;;;6237256;23;20012;-72
2021/01/27 00:14:33;;;;;;;4.90;1.75;;;24.50;63.60;;;;;;6240071;23;20059;-70
2021/01/27 00:16:59;;;;;;;6.78;2.65;;;24.50;63.60;;;;;;6238664;23;20000;-73
2021/01/27 00:19:26;;;;;;;8.05;2.28;;;24.50;63.70;;;;;;6240043;23;20340;-72
2021/01/27 00:21:52;;;;;;;6.35;1.48;;;24.40;63.70;;;;;;6238657;23;20003;-73
2021/01/27 00:24:19;;;;;;;6.68;2.17;;;24.40;63.70;;;;;;6239655;23;20008;-72
2021/01/27 00:26:46;;;;;;;7.57;2.75;;;24.40;63.80;;;;;;6239646;23;20081;-67
2021/01/27 00:29:12;;;;;;;5.60;1.77;;;24.40;63.80;;;;;;6240778;23;20004;-69
2021/01/27 00:31:39;;;;;;;5.50;1.77;;;24.40;63.70;;;;;;6242493;23;20008;-72
2021/01/27 00:34:07;;;;;;;5.97;2.28;;;24.40;63.80;;;;;;6240436;23;20023;-71
2021/01/27 00:36:33;;;;;;;11.23;2.08;;;24.40;63.70;;;;;;6241280;23;20463;-70
2021/01/27 00:39:39;;;;;;;5.53;1.83;;;24.40;63.70;;;;;;6234862;23;19996;-68
2021/01/27 00:42:25;;;;;;;;;;;24.30;63.70;;;;;;6241205;23;20444;-71
2021/01/27 00:45:31;;;;;;;7.20;1.90;;;24.30;63.70;;;;;;6241323;23;19934;-73
2021/01/27 00:48:17;;;;;;;;;;;24.40;63.80;;;;;;6240353;23;20087;-72
2021/01/27 00:51:23;;;;;;;4.63;1.63;;;24.30;63.80;;;;;;6240722;23;19907;-73
2021/01/27 00:54:30;;;;;;;6.05;1.67;;;24.30;63.80;;;;;;6241458;23;20158;-73
2021/01/27 00:57:36;;;;;;;5.63;1.77;;;24.30;63.80;;;;;;6240485;23;20000;-71
2021/01/27 01:00:42;;;;;;;10.70;3.17;;;24.30;63.90;;;;;;6240055;23;20340;-71
2021/01/27 01:03:48;;;;;;;6.90;3.00;;;24.30;63.90;;;;;;6241074;23;20004;-73
2021/01/27 01:06:55;;;;;;;4.93;1.58;;;24.20;64.60;;;;;;6241717;23;20004;-69
2021/01/27 01:10:01;;;;;;;5.95;1.85;;;24.20;63.90;;;;;;6239905;22;20003;-71
2021/01/27 01:13:07;;;;;;;5.40;1.63;;;24.20;63.80;;;;;;6240476;23;20008;-70
2021/01/27 01:15:53;;;;;;;;;;;24.20;63.80;;;;;;6241877;23;19999;-73
2021/01/27 01:18:59;;;;;;;5.07;2.58;;;24.20;63.70;;;;;;6240495;23;20297;-71
2021/01/27 01:22:05;;;;;;;6.00;1.45;;;24.20;64.30;;;;;;6239964;23;20083;-68
2021/01/27 01:25:11;;;;;;;6.22;1.80;;;24.20;63.70;;;;;;6240675;23;20001;-71
2021/01/27 01:28:17;;;;;;;4.72;1.80;;;24.10;63.70;;;;;;6241171;23;20005;-67
2021/01/27 01:31:23;;;;;;;6.13;2.08;;;24.20;63.70;;;;;;6239767;23;20020;-71
2021/01/27 01:34:29;;;;;;;4.38;2.60;;;24.20;63.60;;;;;;6240849;23;20073;-69
2021/01/27 01:37:35;;;;;;;3.30;1.38;;;24.10;63.70;;;;;;6241001;23;20000;-74
2021/01/27 01:40:44;;;;;;;7.90;2.75;;;24.10;63.70;;;;;;6240313;23;20003;-67
2021/01/27 01:43:31;;;;;;;4.55;1.88;;;24.10;63.70;;;;;;6240012;23;20004;-70
2021/01/27 01:46:37;;;;;;;3.40;1.52;;;24.10;63.70;;;;;;6241030;23;20038;-71
2021/01/27 01:49:43;;;;;;;2.90;1.35;;;24.10;64.30;;;;;;6240638;23;20004;-70
2021/01/27 01:52:49;;;;;;;7.07;1.35;;;24.10;63.70;;;;;;6238996;23;20062;-72
2021/01/27 01:55:55;;;;;;;8.15;1.27;;;24.10;63.70;;;;;;6240836;23;20099;-67
2021/01/27 01:59:02;;;;;;;5.78;1.65;;;24.10;63.80;;;;;;6241643;23;20000;-69
2021/01/27 02:02:08;;;;;;;4.22;1.58;;;24.00;63.70;;;;;;6239051;23;20008;-67
2021/01/27 02:04:57;;;;;;;;;;;24.00;63.80;;;;;;6240275;23;20106;-67
2021/01/27 02:08:03;;;;;;;14.50;9.55;;;24.00;63.80;;;;;;6240615;23;19899;-70
2021/01/27 02:11:09;;;;;;;10.23;6.40;;;24.00;63.80;;;;;;6239906;23;20019;-70
2021/01/27 02:14:27;;;;;;;7.00;4.25;;;24.00;63.80;;;;;;6239596;23;20004;-66
2021/01/27 02:17:55;;;;;;;5.57;2.90;;;24.00;63.90;;;;;;6240501;23;20453;-67
2021/01/27 02:21:07;;;;;;;9.30;2.80;;;24.00;64.00;;;;;;6216178;23;20416;-67
2021/01/27 02:23:36;;;;;;;9.65;3.03;;;24.00;64.00;;;;;;6239785;23;20012;-66
2021/01/27 02:26:45;;;;;;;6.50;2.10;;;23.90;64.00;;;;;;6240543;23;20344;-72
2021/01/27 02:30:01;;;;;;;4.40;1.80;;;23.90;64.10;;;;;;6240384;23;20062;-69
2021/01/27 02:32:49;;;;;;;7.15;2.83;;;23.90;64.10;;;;;;6240427;23;20012;-69
2021/01/27 02:35:19;;;;;;;5.65;1.77;;;23.90;64.20;;;;;;6239483;22;20011;-69
2021/01/27 02:38:07;;;;;;;6.82;1.75;;;23.90;64.20;;;;;;6240804;23;20006;-68
2021/01/27 02:41:14;;;;;;;4.25;1.60;;;23.90;64.20;;;;;;6238992;23;20455;-67
2021/01/27 02:44:23;;;;;;;8.35;1.90;;;23.90;64.30;;;;;;6192283;22;20014;-66
2021/01/27 02:47:29;;;;;;;3.55;1.20;;;23.80;64.30;;;;;;6240283;23;20004;-69
2021/01/27 02:50:41;;;;;;;7.90;3.22;;;23.90;64.40;;;;;;6239960;23;20015;-67
2021/01/27 02:53:47;;;;;;;5.60;1.48;;;23.80;64.30;;;;;;6239092;23;20000;-72
2021/01/27 02:56:26;;;;;;;4.82;1.67;;;23.80;64.20;;;;;;6239591;23;20046;-68
2021/01/27 02:59:59;;;;;;;7.90;2.08;;;23.80;64.20;;;;;;6240796;23;20505;-72
2021/01/27 03:03:04;;;;;;;6.60;1.67;;;23.80;63.90;;;;;;6240222;23;20031;-75
2021/01/27 03:06:10;;;;;;;3.28;1.63;;;23.70;64.00;;;;;;6238906;22;20436;-69
2021/01/27 03:09:02;;;;;;;;;;;23.70;63.90;;;;;;6240199;23;20084;-73
2021/01/27 03:12:09;;;;;;;10.68;3.92;;;23.70;64.00;;;;;;6236856;23;20305;-67
2021/01/27 03:15:15;;;;;;;6.13;2.47;;;23.70;64.00;;;;;;6238851;23;20074;-67
2021/01/27 03:18:22;;;;;;;7.68;2.85;;;23.70;64.00;;;;;;6239701;22;20011;-66
2021/01/27 03:21:29;;;;;;;5.22;1.55;;;23.70;64.10;;;;;;6240656;23;20372;-66
2021/01/27 03:24:38;;;;;;;4.28;2.00;;;23.70;64.10;;;;;;6239418;23;20668;-66
2021/01/27 03:27:44;;;;;;;7.55;2.05;;;23.70;64.30;;;;;;6239223;23;20010;-69
2021/01/27 03:30:51;;;;;;;6.20;3.15;;;23.70;64.40;;;;;;6240279;23;20023;-71
2021/01/27 03:33:18;;;;;;;5.40;1.70;;;23.70;64.50;;;;;;6239733;23;20028;-67
2021/01/27 03:36:10;;;;;;;5.43;2.38;;;23.70;64.70;;;;;;6239165;23;20041;-70
2021/01/27 03:39:16;;;;;;;4.28;1.60;;;23.60;64.60;;;;;;6239651;23;20012;-68
2021/01/27 03:42:22;;;;;;;13.20;6.75;;;23.60;64.80;;;;;;6239838;23;20424;-71
2021/01/27 03:45:29;;;;;;;13.73;8.32;;;23.60;64.80;;;;;;6238639;23;20394;-70
2021/01/27 03:48:21;;;;;;;;;;;23.60;64.80;;;;;;6240706;23;20424;-66
2021/01/27 03:51:30;;;;;;;9.18;4.90;;;23.60;64.80;;;;;;6239748;23;19911;-69
2021/01/27 03:54:36;;;;;;;8.30;4.38;;;23.60;64.80;;;;;;6238812;23;20342;-69
2021/01/27 03:57:48;;;;;;;17.27;4.60;;;23.60;64.90;;;;;;6233907;23;20053;-68
2021/01/27 04:00:55;;;;;;;15.18;6.88;;;23.50;65.50;;;;;;6239126;23;20016;-69
2021/01/27 04:04:01;;;;;;;12.32;7.85;;;23.60;64.90;;;;;;6241367;23;19996;-70
2021/01/27 04:06:47;;;;;;;;;;;23.60;64.90;;;;;;6240263;23;20431;-70
2021/01/27 04:09:53;;;;;;;12.45;8.25;;;23.60;64.90;;;;;;6241385;23;19925;-69
2021/01/27 04:12:59;;;;;;;9.45;5.03;;;23.50;64.80;;;;;;6241977;23;20004;-69
2021/01/27 04:16:05;;;;;;;7.90;3.38;;;23.50;64.90;;;;;;6240752;23;20000;-68
2021/01/27 04:19:12;;;;;;;11.38;3.75;;;23.50;65.10;;;;;;6241310;23;20499;-68
2021/01/27 04:22:18;;;;;;;13.38;5.32;;;23.50;64.90;;;;;;6242246;23;20422;-69
2021/01/27 04:25:27;;;;;;;13.02;7.00;;;23.50;65.00;;;;;;6241096;23;20420;-70
2021/01/27 04:28:33;;;;;;;10.68;5.57;;;23.40;65.10;;;;;;6239819;23;20365;-69
2021/01/27 04:31:39;;;;;;;8.63;4.38;;;23.50;65.10;;;;;;6241120;23;20004;-68
2021/01/27 04:34:45;;;;;;;11.88;6.63;;;23.50;65.20;;;;;;6241448;23;20011;-71
2021/01/27 04:37:31;;;;;;;;;;;23.40;65.30;;;;;;6240734;23;20007;-66
2021/01/27 04:40:23;;;;;;;62.10;23.63;;;23.40;65.40;;;;;;6241103;23;20004;-69
2021/01/27 04:43:42;;;;;;;39.80;17.65;;;23.50;65.50;;;;;;6241566;22;20032;-68
2021/01/27 04:46:48;;;;;;;25.23;11.23;;;23.40;65.60;;;;;;6240132;23;20008;-67
2021/01/27 04:49:37;;;;;;;;;;;23.40;65.70;;;;;;6240644;23;20004;-70
2021/01/27 04:52:23;;;;;;;;;;;23.50;65.80;;;;;;6240820;23;19911;-71
2021/01/27 04:55:24;;;;;;;;;;;23.50;65.80;;;;;;6240654;23;19899;-68
2021/01/27 04:57:54;;;;;;;;;;;23.50;65.90;;;;;;6240398;23;19927;-67
2021/01/27 05:00:20;;;;;;;;;;;23.50;65.90;;;;;;6240858;23;20217;-72
2021/01/27 05:02:46;;;;;;;;;;;23.50;66.10;;;;;;6240713;23;20362;-72
2021/01/27 05:05:33;;;;;;;;;;;23.50;66.20;;;;;;6242346;23;19983;-71
2021/01/27 05:08:19;;;;;;;;;;;23.50;66.30;;;;;;6239682;23;20311;-72
2021/01/27 05:11:05;;;;;;;;;;;23.50;66.30;;;;;;6240883;23;19911;-72
2021/01/27 05:13:57;;;;;;;;;;;23.50;66.30;;;;;;6240120;23;19899;-72
2021/01/27 05:16:43;;;;;;;;;;;23.50;66.40;;;;;;6240092;23;19903;-72
2021/01/27 05:19:29;;;;;;;;;;;23.50;66.40;;;;;;6239829;23;19903;-71
2021/01/27 05:22:15;;;;;;;;;;;23.50;66.60;;;;;;6229345;22;20278;-68
2021/01/27 05:25:01;;;;;;;;;;;23.50;66.70;;;;;;6236726;23;19914;-71
2021/01/27 05:27:51;;;;;;;;;;;23.50;66.70;;;;;;6238580;23;19902;-68
2021/01/27 05:30:41;;;;;;;;;;;23.50;66.80;;;;;;6240469;23;20343;-69
2021/01/27 05:33:27;;;;;;;;;;;23.50;66.90;;;;;;6239867;23;19907;-69
2021/01/27 05:36:13;;;;;;;;;;;23.50;67.10;;;;;;6241394;22;19899;-67
2021/01/27 05:38:59;;;;;;;;;;;23.50;67.30;;;;;;6238846;23;19899;-67
2021/01/27 05:41:47;;;;;;;;;;;23.50;67.30;;;;;;6239755;23;20651;-70
2021/01/27 05:44:42;;;;;;;;;;;23.50;67.30;;;;;;6206327;23;20287;-67
2021/01/27 05:47:46;;;;;;;;;;;23.50;67.30;;;;;;6115826;23;19904;-67
2021/01/27 05:50:38;;;;;;;;;;;23.60;67.40;;;;;;6118334;23;19936;-67
2021/01/27 05:53:30;;;;;;;;;;;23.60;67.40;;;;;;6117770;23;20416;-67
2021/01/27 05:56:16;;;;;;;;;;;23.60;67.30;;;;;;6118414;23;19928;-66
2021/01/27 05:59:05;;;;;;;;;;;23.60;67.40;;;;;;6117417;23;19920;-69
2021/01/27 06:02:05;;;;;;;;;;;23.70;67.40;;;;;;6116624;23;19912;-70
2021/01/27 06:04:52;;;;;;;;;;;23.60;67.30;;;;;;6117696;23;19912;-70
2021/01/27 06:07:22;;;;;;;;;;;23.70;67.30;;;;;;6116987;23;19951;-70
2021/01/27 06:09:49;;;;;;;;;;;23.70;67.20;;;;;;6118517;23;19905;-66
2021/01/27 06:12:18;;;;;;;;;;;23.70;67.10;;;;;;6117207;23;20324;-67
2021/01/27 06:14:48;;;;;;;;;;;23.70;67.00;;;;;;6094033;23;19932;-69
2021/01/27 06:17:25;;;;;;;;;;;23.80;66.90;;;;;;6132403;23;19982;-71
2021/01/27 06:20:09;;;;;;;;;;;23.80;66.80;;;;;;6205689;23;19906;-72
2021/01/27 06:22:53;;;;;;;;;;;23.80;67.30;;;;;;6207236;23;19900;-71
2021/01/27 06:25:38;;;;;;;;;;;23.80;66.50;;;;;;6203156;23;19927;-69
2021/01/27 06:28:12;;;;;;;;;;;23.90;66.40;;;;;;6207247;23;20294;-68
2021/01/27 06:30:38;;;;;;;;;;;23.90;66.10;;;;;;6207146;23;19968;-71
2021/01/27 06:33:11;;;;;;;;;;;23.90;66.00;;;;;;6206498;23;19899;-73
2021/01/27 06:35:43;;;;;;;;;;;23.90;65.90;;;;;;6239422;23;19957;-73
2021/01/27 06:38:15;;;;;;;;;;;23.90;65.90;;;;;;6239839;23;19903;-73
2021/01/27 06:40:53;;;;;;;;;;;24.00;65.70;;;;;;6232981;23;20216;-69
2021/01/27 06:43:19;;;;;;;;;;;24.00;65.50;;;;;;6239746;23;19911;-72
2021/01/27 06:45:57;;;;;;;;;;;24.00;65.30;;;;;;6240301;23;19895;-68
2021/01/27 06:48:24;;;;;;;;;;;24.00;65.20;;;;;;6240764;23;20326;-65
2021/01/27 06:50:53;;;;;;;;;;;24.10;65.10;;;;;;6237802;23;19918;-69
2021/01/27 06:53:27;;;;;;;;;;;24.10;64.90;;;;;;6240897;23;19904;-70
2021/01/27 06:56:16;;;;;;;;;;;24.00;64.80;;;;;;6239216;23;19979;-66
2021/01/27 06:59:01;;;;;;;;;;;24.10;64.50;;;;;;6240064;23;19899;-67
2021/01/27 07:01:27;;;;;;;;;;;24.10;64.10;;;;;;6240359;23;20320;-68
2021/01/27 07:04:05;;;;;;;;;;;24.10;63.50;;;;;;6239431;23;20381;-68
2021/01/27 07:06:49;;;;;;;;;;;24.10;63.30;;;;;;6240846;23;19953;-73
2021/01/27 07:09:22;;;;;;;;;;;24.10;63.10;;;;;;6239698;23;19899;-71
2021/01/27 07:11:48;;;;;;;;;;;24.10;62.90;;;;;;6239465;23;19907;-73
2021/01/27 07:14:27;;;;;;;;;;;24.10;62.70;;;;;;6239838;23;19900;-75
2021/01/27 07:17:11;;;;;;;;;;;24.20;62.80;;;;;;6238469;23;19935;-65
2021/01/27 07:19:56;;;;;;;;;;;24.20;62.60;;;;;;6239563;23;19903;-74
2021/01/27 07:22:27;;;;;;;;;;;24.20;62.40;;;;;;6239563;23;20564;-74
2021/01/27 07:25:32;;;;;;;;;;;24.20;62.20;;;;;;6239582;23;19905;-72
2021/01/27 07:28:12;;;;;;;;;;;24.20;61.90;;;;;;6146809;23;19938;-67
2021/01/27 07:30:49;;;;;;;;;;;24.20;61.80;;;;;;6145513;23;19932;-64
2021/01/27 07:33:19;;;;;;;;;;;24.30;61.50;;;;;;6206261;23;19923;-65
2021/01/27 07:35:57;;;;;;;;;;;24.30;61.20;;;;;;6239773;23;19907;-65
2021/01/27 07:38:27;;;;;;;;;;;24.30;61.00;;;;;;6238841;23;19926;-65
2021/01/27 07:40:58;;;;;;;;;;;24.30;60.80;;;;;;6240010;23;20331;-64
2021/01/27 07:43:29;;;;;;;;;;;24.30;60.60;;;;;;6239043;23;19899;-66
2021/01/27 07:45:55;;;;;;;;;;;24.30;60.50;;;;;;6240019;23;19907;-66
2021/01/27 07:48:30;;;;;;;;;;;24.30;60.50;;;;;;6239761;23;20224;-66
2021/01/27 07:51:02;;;;;;;;;;;24.40;60.60;;;;;;6239686;23;20068;-66
2021/01/27 07:53:28;;;;;;;;;;;24.40;60.30;;;;;;6240501;23;19907;-66
2021/01/27 07:56:04;;;;;;;;;;;24.40;60.10;;;;;;6239171;23;19928;-65
2021/01/27 07:58:30;;;;;;;;;;;24.50;60.40;;;;;;6238897;23;19953;-65
2021/01/27 08:01:17;;;;;;;;;;;24.60;60.30;;;;;;6239120;23;20346;-64
2021/01/27 08:03:47;;;;;;;;;;;24.60;60.30;;;;;;6239707;23;19904;-65
2021/01/27 08:06:19;;;;;;;;;;;24.60;59.80;;;;;;6241184;23;19927;-65
2021/01/27 08:08:59;;;;;;;;;;;24.60;59.50;;;;;;6238894;23;19942;-65
2021/01/27 08:11:40;;;;;;;;;;;24.60;59.30;;;;;;6240649;23;19934;-64
2021/01/27 08:14:07;;;;;;;;;;;24.60;59.20;;;;;;6239674;23;19903;-65
2021/01/27 08:16:37;;;;;;;;;;;24.60;58.50;;;;;;6240687;23;20041;-64
2021/01/27 08:19:13;;;;;;;;;;;24.70;58.50;;;;;;6239965;23;19978;-65
2021/01/27 08:21:45;;;;;;;;;;;24.70;58.00;;;;;;6233135;23;19911;-66
2021/01/27 08:24:29;;;;;;;;;;;24.70;57.90;;;;;;6239690;23;19903;-65
2021/01/27 08:26:56;;;;;;;;;;;24.80;55.60;;;;;;6236156;23;19910;-65
2021/01/27 08:29:27;;;;;;;;;;;24.80;55.60;;;;;;6240152;23;19910;-65
2021/01/27 08:32:11;;;;;;;;;;;24.80;55.50;;;;;;6240005;23;19908;-65
2021/01/27 08:34:44;;;;;;;;;;;24.80;54.40;;;;;;6239021;23;19899;-68
2021/01/27 08:37:19;;;;;;;;;;;24.90;54.50;;;;;;6239886;23;20583;-65
2021/01/27 08:39:45;;;;;;;;;;;24.90;54.00;;;;;;6239093;23;19926;-67
2021/01/27 08:42:35;;;;;;;;;;;24.90;53.90;;;;;;6240224;23;19953;-66
2021/01/27 08:45:08;;;;;;;;;;;24.90;53.30;;;;;;6239829;23;20308;-67
2021/01/27 08:47:38;;;;;;;;;;;24.90;52.90;;;;;;6238731;23;19942;-66
2021/01/27 08:50:09;;;;;;;;;;;25.00;52.50;;;;;;6241897;23;19900;-67
2021/01/27 08:52:37;;;;;;;;;;;25.00;51.70;;;;;;6240743;23;20300;-65
2021/01/27 08:55:22;;;;;;;;;;;25.00;51.30;;;;;;6242711;23;20229;-67
2021/01/27 08:58:08;;;;;;;;;;;25.00;51.00;;;;;;6241913;23;19900;-66
2021/01/27 09:00:34;;;;;;;;;;;25.10;50.60;;;;;;6240844;23;20308;-67
2021/01/27 09:03:02;;;;;;;;;;;25.10;51.00;;;;;;6241197;23;19904;-66
2021/01/27 09:05:29;;;;;;;;;;;25.20;51.10;;;;;;6241185;23;20208;-67
2021/01/27 09:08:18;;;;;;;;;;;25.20;51.50;;;;;;6242755;23;19903;-66
2021/01/27 09:10:49;;;;;;;;;;;25.30;51.50;;;;;;6230015;23;19907;-67
2021/01/27 09:13:34;;;;;;;;;;;25.30;51.30;;;;;;6242660;23;19969;-67
2021/01/27 09:16:17;;;;;;;;;;;25.30;51.00;;;;;;6243209;23;19899;-67
2021/01/27 09:19:03;;;;;;;;;;;25.30;51.00;;;;;;6241277;23;19899;-67
2021/01/27 09:21:30;;;;;;;;;;;25.30;51.10;;;;;;6242787;23;19978;-67
2021/01/27 09:23:58;;;;;;;;;;;25.30;51.20;;;;;;6243491;23;19907;-67
2021/01/27 09:26:33;;;;;;;;;;;25.40;50.90;;;;;;6242117;23;19950;-66
2021/01/27 09:29:06;;;;;;;;;;;25.40;51.40;;;;;;6243945;23;19899;-66
2021/01/27 09:31:32;;;;;;;;;;;25.40;50.00;;;;;;6241285;23;19986;-67
2021/01/27 09:33:59;;;;;;;;;;;25.40;50.10;;;;;;6239258;23;19900;-67
2021/01/27 09:36:26;;;;;;;;;;;25.50;49.20;;;;;;6242205;23;20417;-67
2021/01/27 09:38:56;;;;;;;;;;;25.50;49.00;;;;;;6242119;23;20466;-67
2021/01/27 09:41:28;;;;;;;;;;;25.50;49.20;;;;;;6242577;23;19899;-67
2021/01/27 09:43:55;;;;;;;;;;;25.60;49.70;;;;;;6241399;23;19907;-67
2021/01/27 09:46:21;;;;;;;;;;;25.60;48.00;;;;;;6242138;23;20307;-67
2021/01/27 09:48:47;;;;;;;;;;;25.60;48.00;;;;;;6241451;23;19905;-67
2021/01/27 09:51:14;;;;;;;;;;;25.60;48.00;;;;;;6243530;23;19907;-67
2021/01/27 09:53:41;;;;;;;;;;;25.60;47.70;;;;;;6242060;23;19907;-67
2021/01/27 09:56:10;;;;;;;;;;;25.70;47.90;;;;;;6242465;23;19907;-67
2021/01/27 09:58:40;;;;;;;;;;;25.70;47.80;;;;;;6242568;23;19900;-67
2021/01/27 10:01:08;;;;;;;;;;;25.70;47.70;;;;;;6241340;23;19918;-66
2021/01/27 10:03:36;;;;;;;;;;;25.80;47.90;;;;;;6242655;23;19899;-66
2021/01/27 10:06:02;;;;;;;;;;;25.80;47.60;;;;;;6240588;23;19900;-67
2021/01/27 10:08:33;;;;;;;;;;;25.80;47.90;;;;;;6241784;23;19906;-66
2021/01/27 10:11:05;;;;;;;;;;;25.80;48.70;;;;;;6241688;23;19907;-66
2021/01/27 10:13:32;;;;;;;;;;;25.80;48.10;;;;;;6241907;23;19900;-66
2021/01/27 10:16:06;;;;;;;;;;;25.90;48.00;;;;;;6242691;23;19900;-68
2021/01/27 10:18:33;;;;;;;;;;;25.90;48.20;;;;;;6241216;23;19931;-66
2021/01/27 10:21:01;;;;;;;;;;;26.00;48.30;;;;;;6242276;23;19900;-67
2021/01/27 10:23:39;;;;;;;;;;;26.00;48.50;;;;;;6241551;23;19899;-67
2021/01/27 10:26:40;;;;;;;;;;;26.10;48.50;;;;;;6242678;23;19900;-67
2021/01/27 10:29:29;;;;;;;;;;;26.10;48.00;;;;;;6149910;23;20332;-66
2021/01/27 10:31:56;;;;;;;;;;;26.10;46.50;;;;;;6235565;23;20002;-66
2021/01/27 10:34:41;;;;;;;;;;;26.10;45.90;;;;;;6242316;23;19904;-65
2021/01/27 10:37:26;;;;;;;;;;;26.10;46.10;;;;;;6242269;23;19934;-66
2021/01/27 10:40:12;;;;;;;;;;;26.10;45.00;;;;;;6241097;23;19899;-67
2021/01/27 10:42:39;;;;;;;;;;;26.00;45.20;;;;;;6242115;23;19906;-66
2021/01/27 10:45:12;;;;;;;;;;;26.20;44.90;;;;;;6241635;23;19945;-66
2021/01/27 10:47:39;;;;;;;;;;;26.20;44.90;;;;;;6242928;23;19925;-66
2021/01/27 10:50:05;;;;;;;;;;;26.20;44.40;;;;;;6242232;23;20211;-66
2021/01/27 10:52:31;;;;;;;;;;;26.30;43.80;;;;;;6241468;23;19907;-67
2021/01/27 10:54:59;;;;;;;;;;;26.30;43.40;;;;;;6242224;23;19957;-67
2021/01/27 10:57:25;;;;;;;;;;;26.30;44.00;;;;;;6240655;23;19900;-66
2021/01/27 10:59:55;;;;;;;;;;;26.30;44.20;;;;;;6240111;23;19946;-67
2021/01/27 11:02:21;;;;;;;;;;;26.40;44.80;;;;;;6240131;23;19899;-66
2021/01/27 11:04:48;;;;;;;;;;;26.40;44.40;;;;;;6242186;23;20256;-66
2021/01/27 11:07:14;;;;;;;;;;;26.40;44.40;;;;;;6241174;23;19942;-67
2021/01/27 11:09:44;;;;;;;;;;;26.50;44.50;;;;;;6241783;23;19906;-66
2021/01/27 11:12:10;;;;;;;;;;;26.50;43.90;;;;;;6241950;23;20235;-66
2021/01/27 11:14:36;;;;;;;;;;;26.50;44.10;;;;;;6240909;23;19974;-67
2021/01/27 11:17:22;;;;;;;;;;;26.50;43.80;;;;;;6241265;23;19899;-67
2021/01/27 11:20:09;;;;;;;;;;;26.60;44.00;;;;;;6238879;22;19907;-67
2021/01/27 11:22:55;;;;;;;;;;;26.50;43.50;;;;;;6240303;23;20308;-67
2021/01/27 11:25:44;;;;;;;;;;;26.60;43.00;;;;;;6240945;22;19899;-67
2021/01/27 11:28:30;;;;;;;;;;;26.60;43.20;;;;;;6239518;23;19900;-67
2021/01/27 11:31:16;;;;;;;;;;;26.70;43.40;;;;;;6235423;23;20294;-68
2021/01/27 11:34:02;;;;;;;;;;;26.70;43.10;;;;;;6237906;23;19899;-67
2021/01/27 11:36:47;;;;;;;;;;;26.70;43.20;;;;;;6238871;23;19921;-66
2021/01/27 11:39:33;;;;;;;;;;;26.80;43.20;;;;;;6240469;23;19911;-67
2021/01/27 11:42:19;;;;;;;;;;;26.80;42.60;;;;;;6239753;23;19907;-67
2021/01/27 11:45:05;;;;;;;;;;;26.80;42.80;;;;;;6239606;23;20472;-67
2021/01/27 11:47:51;;;;;;;;;;;26.90;43.10;;;;;;6240462;23;19907;-66
2021/01/27 11:50:37;;;;;;;;;;;26.90;43.20;;;;;;6239246;23;19899;-68
2021/01/27 11:53:23;;;;;;;;;;;27.00;43.20;;;;;;6240132;23;19939;-67
2021/01/27 11:56:08;;;;;;;;;;;27.00;43.60;;;;;;6240726;23;19900;-67
2021/01/27 11:58:54;;;;;;;;;;;27.00;43.30;;;;;;6239104;23;19942;-67
2021/01/27 12:01:40;;;;;;;;;;;27.00;43.00;;;;;;6239984;23;20393;-68
2021/01/27 12:04:26;;;;;;;;;;;27.00;43.50;;;;;;6235288;23;20002;-67
2021/01/27 12:07:12;;;;;;;;;;;27.00;43.70;;;;;;6239226;23;19899;-69
2021/01/27 12:09:58;;;;;;;;;;;27.00;43.30;;;;;;6239594;23;20002;-68
2021/01/27 12:12:47;;;;;;;;;;;27.10;43.80;;;;;;6239490;22;20426;-68
2021/01/27 12:15:34;;;;;;;;;;;27.10;43.30;;;;;;6239219;22;20362;-67
2021/01/27 12:18:20;;;;;;;;;;;27.20;42.90;;;;;;6241710;23;19906;-69
2021/01/27 12:21:06;;;;;;;;;;;27.20;43.10;;;;;;6239682;23;19925;-67
2021/01/27 12:23:51;;;;;;;;;;;27.20;42.90;;;;;;6241081;23;19918;-67
2021/01/27 12:26:37;;;;;;;;;;;27.20;43.10;;;;;;6243212;23;19900;-67
2021/01/27 12:29:23;;;;;;;;;;;27.30;42.60;;;;;;6242006;23;19899;-67
2021/01/27 12:32:09;;;;;;;;;;;27.30;42.20;;;;;;6243039;22;19934;-68
2021/01/27 12:34:55;;;;;;;;;;;27.30;43.40;;;;;;6243323;23;19926;-67
2021/01/27 12:37:41;;;;;;;;;;;27.30;43.10;;;;;;6242620;23;19978;-67
2021/01/27 12:40:27;;;;;;;;;;;27.30;43.20;;;;;;6243210;23;19903;-67
2021/01/27 12:43:13;;;;;;;;;;;27.30;43.40;;;;;;6243582;23;19906;-67
2021/01/27 12:46:01;;;;;;;;;;;27.40;43.20;;;;;;6241840;23;19899;-67
2021/01/27 12:48:47;;;;;;;;;;;27.40;43.10;;;;;;6244404;22;19899;-66
2021/01/27 12:51:32;;;;;;;;;;;27.40;42.50;;;;;;6241974;23;19907;-68
2021/01/27 12:54:18;;;;;;;;;;;27.40;42.80;;;;;;6242084;23;19926;-67
2021/01/27 12:57:04;;;;;;;;;;;27.50;42.80;;;;;;6243492;23;19915;-67
2021/01/27 12:59:50;;;;;;;;;;;27.50;43.00;;;;;;6242508;23;19930;-67
2021/01/27 13:02:36;;;;;;;;;;;27.50;43.10;;;;;;6242832;23;20217;-67
2021/01/27 13:05:22;;;;;;;;;;;27.50;42.80;;;;;;6243304;22;19903;-68
2021/01/27 13:08:08;;;;;;;;;;;27.50;42.80;;;;;;6242544;23;19923;-66
2021/01/27 13:10:54;;;;;;;;;;;27.50;42.80;;;;;;6243406;23;19912;-67
2021/01/27 13:13:40;;;;;;;;;;;27.50;43.30;;;;;;6243734;23;20260;-68
2021/01/27 13:16:27;;;;;;;;;;;27.50;43.10;;;;;;6235948;22;20449;-68
2021/01/27 13:19:12;;;;;;;;;;;27.50;42.70;;;;;;6242834;22;19923;-67
2021/01/27 13:21:58;;;;;;;;;;;27.50;42.90;;;;;;6242015;23;19998;-67
2021/01/27 13:24:44;;;;;;;;;;;27.50;43.50;;;;;;6242290;23;19895;-66
2021/01/27 13:27:30;;;;;;;;;;;27.50;43.00;;;;;;6242454;23;19907;-67
2021/01/27 13:30:16;;;;;;;;;;;27.50;43.70;;;;;;6242345;23;19899;-69
2021/01/27 13:33:02;;;;;;;;;;;27.50;43.30;;;;;;6242540;23;19931;-66
2021/01/27 13:35:48;;;;;;;;;;;27.50;43.10;;;;;;6240759;23;19907;-67
2021/01/27 13:38:36;;;;;;;;;;;27.50;43.50;;;;;;6241646;23;20601;-66
2021/01/27 13:41:21;;;;;;;;;;;27.60;42.90;;;;;;6242506;22;19900;-66
2021/01/27 13:44:07;;;;;;;;;;;27.60;43.00;;;;;;6242810;23;19923;-66
2021/01/27 13:46:53;;;;;;;;;;;27.60;42.90;;;;;;6241591;23;19964;-66
2021/01/27 13:49:39;;;;;;;;;;;27.60;42.80;;;;;;6242660;23;19977;-66
2021/01/27 13:52:25;;;;;;;;;;;27.60;43.00;;;;;;6243129;23;19908;-65
2021/01/27 13:55:11;;;;;;;;;;;27.60;42.90;;;;;;6242315;22;19906;-66
2021/01/27 13:57:57;;;;;;;;;;;27.60;43.10;;;;;;6243227;23;19911;-66
2021/01/27 14:00:43;;;;;;;;;;;27.60;43.20;;;;;;6241684;23;19911;-67
2021/01/27 14:03:29;;;;;;;;;;;27.60;43.20;;;;;;6242215;23;19900;-67
2021/01/27 14:06:15;;;;;;;;;;;27.60;43.10;;;;;;6242707;23;19978;-65
2021/01/27 14:09:01;;;;;;;;;;;27.60;42.90;;;;;;6242010;23;19899;-66
2021/01/27 14:11:47;;;;;;;;;;;27.60;42.60;;;;;;6242161;23;19908;-66
2021/01/27 14:14:32;;;;;;;;;;;27.60;43.00;;;;;;6242433;23;19926;-67
2021/01/27 14:17:18;;;;;;;;;;;27.60;43.10;;;;;;6241538;23;19900;-65
2021/01/27 14:20:04;;;;;;;;;;;27.50;43.20;;;;;;6242521;23;19975;-66
2021/01/27 14:22:50;;;;;;;;;;;27.50;43.30;;;;;;6242212;23;19907;-66
2021/01/27 14:25:36;;;;;;;;;;;27.50;43.30;;;;;;6241881;22;19907;-66
2021/01/27 14:28:22;;;;;;;;;;;27.50;43.40;;;;;;6242547;23;19900;-66
2021/01/27 14:31:08;;;;;;;;;;;27.50;43.40;;;;;;6241727;23;19911;-66
2021/01/27 14:33:54;;;;;;;;;;;27.50;43.30;;;;;;6241633;22;19899;-67
2021/01/27 14:36:40;;;;;;;;;;;27.50;43.60;;;;;;6242447;22;19978;-66
2021/01/27 14:39:26;;;;;;;;;;;27.40;43.50;;;;;;6241723;23;19930;-66
2021/01/27 14:42:12;;;;;;;;;;;27.40;43.50;;;;;;6242332;23;19915;-68
2021/01/27 14:44:58;;;;;;;;;;;27.40;43.30;;;;;;6242572;23;19949;-67
2021/01/27 14:47:46;;;;;;;;;;;27.40;43.20;;;;;;6241340;23;19899;-66
2021/01/27 14:50:32;;;;;;;;;;;27.40;43.70;;;;;;6241822;22;19922;-67
2021/01/27 14:53:18;;;;;;;;;;;27.40;43.10;;;;;;6242625;23;19899;-67
2021/01/27 14:56:04;;;;;;;;;;;27.40;42.40;;;;;;6240669;23;19931;-66
2021/01/27 14:58:51;;;;;;;;;;;27.40;42.70;;;;;;6241975;23;20353;-67
2021/01/27 15:01:37;;;;;;;;;;;27.40;42.70;;;;;;6241785;22;19939;-66
2021/01/27 15:04:23;;;;;;;;;;;27.40;42.50;;;;;;6240602;23;19926;-66
2021/01/27 15:07:08;;;;;;;;;;;27.40;42.80;;;;;;6242671;23;20235;-66
2021/01/27 15:09:54;;;;;;;;;;;27.40;42.50;;;;;;6241535;23;19906;-66
2021/01/27 15:12:40;;;;;;;;;;;27.30;42.60;;;;;;6241042;23;19908;-67
2021/01/27 15:15:26;;;;;;;;;;;27.20;41.80;;;;;;6242521;23;20274;-66
2021/01/27 15:18:12;;;;;;;;;;;27.30;41.90;;;;;;6241265;23;19900;-65
2021/01/27 15:20:58;;;;;;;;;;;27.30;41.90;;;;;;6241398;23;19906;-66
2021/01/27 15:23:44;;;;;;;;;;;27.20;41.50;;;;;;6242201;23;19903;-66
2021/01/27 15:26:30;;;;;;;;;;;27.20;41.90;;;;;;6241039;23;19899;-65
2021/01/27 15:29:15;;;;;;;;;;;27.20;41.80;;;;;;6242154;23;19899;-66
2021/01/27 15:32:01;;;;;;;;;;;27.20;41.40;;;;;;6241398;23;19914;-65